aviador You're here:

SCSE Decoded Metar

LA SERENA in CHILE
Report Time2017-11-24 18:00:00
UTC Time2017-11-24 18:36:27
Flight Rules vfr VFR
Wind280° at 10 kt
W.Decomp.*RWY 29: 9.8 kt HW 1.9 kt LCW
W.Rank280° ranks 1
Current wind is above 280° avg. (7.1)
Visibility9999 m
Phenomena:N/A
Clouds:Scattered 030 Hf
Expected CloudBase > 3,200 ft AGL from Temp-Dew spread
CeilingNone
Temp19°C (ISA +5)
Dew Point11°C (60% RH)
AAT15.7°C
QNH1019 hPa
Density Alt1,037 ft
Elevation479 ft
Report Wrong Elevation
Raw Report
SCSE 241800Z 28010KT 9999 SCT030 19/11 Q1019=

Extra information for SCSE:More info

Metar Taf Metar & Taf Last 4 Metars F.Rules Stats Wind Profile Meteogram Temp Stats Airport Information Weather charts Add Link Nearby VenuesMetar ALERT Operation Metar Decoded Social comments